Time;durP1;ratioP1;P1;durP2;ratioP2;P2;SDS_P1;SDS_P2;PMS_P1;PMS_P2;Temp;Humidity;BMP_temperature;BMP_pressure;BME280_temperature;BME280_humidity;BME280_pressure;Samples;Min_cycle;Max_cycle;Signal;HPM_P1;HPM_P2
2021/12/12 00:00:29;;;;;;;;;;;1.20;99.90;;;;;;5015793;28;19948;-81
2021/12/12 00:02:58;;;;;;;;;;;1.20;99.90;;;;;;5006739;28;19917;-80
2021/12/12 00:05:34;;;;;;;;;;;1.20;99.90;;;;;;4999906;28;19917;-80
2021/12/12 00:08:01;;;;;;;;;;;1.20;99.90;;;;;;5000161;28;19921;-80
2021/12/12 00:10:28;;;;;;;;;;;1.20;99.90;;;;;;5014608;28;20394;-80
2021/12/12 00:12:56;;;;;;;;;;;1.20;99.90;;;;;;4999507;28;19968;-80
2021/12/12 00:15:22;;;;;;;;;;;1.20;99.90;;;;;;5009893;28;19989;-81
2021/12/12 00:17:48;;;;;;;;;;;1.20;99.90;;;;;;5008626;28;20383;-80
2021/12/12 00:20:15;;;;;;;;;;;1.20;99.90;;;;;;5031968;28;19937;-80
2021/12/12 00:22:41;;;;;;;;;;;1.20;99.90;;;;;;5008393;28;19924;-80
2021/12/12 00:25:08;;;;;;;;;;;1.20;99.90;;;;;;5009080;28;19973;-80
2021/12/12 00:27:33;;;;;;;;;;;1.20;99.90;;;;;;4999668;28;19920;-80
2021/12/12 00:30:03;;;;;;;;;;;1.20;99.90;;;;;;4983252;28;19918;-81
2021/12/12 00:32:29;;;;;;;;;;;1.20;99.90;;;;;;5013800;28;19914;-80
2021/12/12 00:34:59;;;;;;;;;;;1.20;99.90;;;;;;5003395;28;20311;-80
2021/12/12 00:37:25;;;;;;;;;;;1.20;99.90;;;;;;5017866;28;20438;-80
2021/12/12 00:39:52;;;;;;;;;;;1.20;99.90;;;;;;4999081;28;19913;-80
2021/12/12 00:42:19;;;;;;;;;;;1.20;99.90;;;;;;5014582;28;19914;-81
2021/12/12 00:44:46;;;;;;;;;;;1.20;99.90;;;;;;5012363;28;19928;-80
2021/12/12 00:47:13;;;;;;;;;;;1.20;99.90;;;;;;5019650;28;19922;-80
2021/12/12 00:49:39;;;;;;;;;;;1.20;99.90;;;;;;4999080;28;19913;-80
2021/12/12 00:52:06;;;;;;;;;;;1.20;99.90;;;;;;5006598;28;20351;-80
2021/12/12 00:54:32;;;;;;;;;;;1.20;99.90;;;;;;4996608;28;19917;-80
2021/12/12 00:56:59;;;;;;;;;;;1.20;99.90;;;;;;5013142;28;20392;-80
2021/12/12 00:59:25;;;;;;;;;;;1.20;99.90;;;;;;5019560;28;19971;-80
2021/12/12 01:01:51;;;;;;;;;;;1.20;99.90;;;;;;5009338;28;19929;-80
2021/12/12 01:04:22;;;;;;;;;;;1.20;99.90;;;;;;5006749;28;19918;-80
2021/12/12 01:06:48;;;;;;;;;;;1.20;99.90;;;;;;4995376;28;20398;-79
2021/12/12 01:09:17;;;;;;;;;;;1.20;99.90;;;;;;4988299;28;19914;-80
2021/12/12 01:11:46;;;;;;;;;;;1.20;99.90;;;;;;4992874;28;19918;-79
2021/12/12 01:14:13;;;;;;;;;;;1.20;99.90;;;;;;5005914;28;20430;-80
2021/12/12 01:16:41;;;;;;;;;;;1.20;99.90;;;;;;4998074;28;20442;-80
2021/12/12 01:19:08;;;;;;;;;;;1.20;99.90;;;;;;4995629;28;19910;-79
2021/12/12 01:21:36;;;;;;;;;;;1.20;99.90;;;;;;4999419;28;19969;-80
2021/12/12 01:24:07;;;;;;;;;;;1.20;99.90;;;;;;4986478;28;19918;-79
2021/12/12 01:26:33;;;;;;;;;;;1.30;99.90;;;;;;5007439;28;20319;-80
2021/12/12 01:28:59;;;;;;;;;;;1.20;99.90;;;;;;5012954;28;19976;-80
2021/12/12 01:31:29;;;;;;;;;;;1.20;99.90;;;;;;4993379;28;19922;-80
2021/12/12 01:34:09;;;;;;;;;;;1.30;99.90;;;;;;5003082;28;19924;-80
2021/12/12 01:39:21;;;;;;;;;;;1.30;99.90;;;;;;5015204;28;19937;-80
2021/12/12 01:41:50;;;;;;;;;;;1.30;99.90;;;;;;5013917;28;19951;-82
2021/12/12 01:44:21;;;;;;;;;;;1.30;99.90;;;;;;5013981;28;19909;-82
2021/12/12 01:46:52;;;;;;;;;;;1.20;99.90;;;;;;5004087;28;19917;-82
2021/12/12 01:49:24;;;;;;;;;;;1.30;99.90;;;;;;4996924;28;19933;-81
2021/12/12 01:51:50;;;;;;;;;;;1.20;99.90;;;;;;5010728;28;19922;-80
2021/12/12 01:54:19;;;;;;;;;;;1.20;99.90;;;;;;4987639;28;20069;-79
2021/12/12 01:56:50;;;;;;;;;;;1.30;99.90;;;;;;5011067;28;19921;-80
2021/12/12 01:59:17;;;;;;;;;;;1.30;99.90;;;;;;5008536;28;19918;-80
2021/12/12 02:01:49;;;;;;;;;;;1.30;99.90;;;;;;4987990;28;19928;-80
2021/12/12 02:04:17;;;;;;;;;;;1.30;99.90;;;;;;4989970;28;20539;-81
2021/12/12 02:06:45;;;;;;;;;;;1.30;99.90;;;;;;4977953;28;19918;-80
2021/12/12 02:09:11;;;;;;;;;;;1.30;99.90;;;;;;5014990;28;19914;-81
2021/12/12 02:11:37;;;;;;;;;;;1.30;99.90;;;;;;5002229;28;19913;-81
2021/12/12 02:14:09;;;;;;;;;;;1.30;99.90;;;;;;5023545;28;20023;-80
2021/12/12 02:16:36;;;;;;;;;;;1.30;99.90;;;;;;4996690;28;20021;-80
2021/12/12 02:19:02;;;;;;;;;;;1.30;99.90;;;;;;4994315;28;19924;-80
2021/12/12 02:21:33;;;;;;;;;;;1.30;99.90;;;;;;5006550;28;19917;-80
2021/12/12 02:35:13;;;;;;;;;;;1.20;99.90;;;;;;5011258;28;20027;-80
2021/12/12 02:37:40;;;;;;;;;;;1.20;99.90;;;;;;5021088;28;19923;-82
2021/12/12 02:40:08;;;;;;;;;;;1.20;99.90;;;;;;5003472;28;19979;-80
2021/12/12 02:42:35;;;;;;;;;;;1.20;99.90;;;;;;4990787;28;19925;-81
2021/12/12 02:45:02;;;;;;;;;;;1.20;99.90;;;;;;5015190;28;19909;-80
2021/12/12 02:47:34;;;;;;;;;;;1.20;99.90;;;;;;4993567;28;20039;-81
2021/12/12 02:50:20;;;;;;;;;;;1.20;99.90;;;;;;5008236;28;19976;-78
2021/12/12 02:52:47;;;;;;;;;;;1.20;99.90;;;;;;4993304;28;20372;-81
2021/12/12 02:55:15;;;;;;;;;;;1.30;99.90;;;;;;5017417;28;20000;-80
2021/12/12 02:57:41;;;;;;;;;;;1.30;99.90;;;;;;5011097;28;19913;-80
2021/12/12 03:00:10;;;;;;;;;;;1.30;99.90;;;;;;5017692;28;20336;-81
2021/12/12 03:02:45;;;;;;;;;;;1.30;99.90;;;;;;5021354;28;19923;-81
2021/12/12 03:05:10;;;;;;;;;;;1.30;99.90;;;;;;5019059;28;20367;-81
2021/12/12 03:07:36;;;;;;;;;;;1.30;99.90;;;;;;5001187;28;19920;-80
2021/12/12 03:10:03;;;;;;;;;;;1.30;99.90;;;;;;4989019;28;19928;-80
2021/12/12 03:12:31;;;;;;;;;;;1.40;99.90;;;;;;4979217;28;19925;-81
2021/12/12 03:14:58;;;;;;;;;;;1.40;99.90;;;;;;5015272;28;19989;-81
2021/12/12 03:17:23;;;;;;;;;;;1.30;99.90;;;;;;5005979;28;20052;-81
2021/12/12 03:19:51;;;;;;;;;;;1.30;99.90;;;;;;5002777;28;20324;-81
2021/12/12 03:22:17;;;;;;;;;;;1.20;99.90;;;;;;5002476;28;19918;-81
2021/12/12 03:24:43;;;;;;;;;;;1.20;99.90;;;;;;4977280;28;19918;-80
2021/12/12 03:27:09;;;;;;;;;;;1.20;99.90;;;;;;5023876;28;19914;-82
2021/12/12 03:29:36;;;;;;;;;;;1.20;99.90;;;;;;5015836;28;19914;-81
2021/12/12 03:32:04;;;;;;;;;;;1.20;99.90;;;;;;5012893;28;20359;-79
2021/12/12 03:34:33;;;;;;;;;;;1.30;99.90;;;;;;5022330;28;19920;-79
2021/12/12 03:37:00;;;;;;;;;;;1.20;99.90;;;;;;5010722;28;19921;-81
2021/12/12 03:39:28;;;;;;;;;;;1.20;99.90;;;;;;4996469;28;19945;-81
2021/12/12 03:41:55;;;;;;;;;;;1.20;99.90;;;;;;4994333;28;19914;-82
2021/12/12 03:44:23;;;;;;;;;;;1.10;99.90;;;;;;5008587;28;19913;-81
2021/12/12 03:46:51;;;;;;;;;;;1.10;99.90;;;;;;5002147;28;19924;-82
2021/12/12 03:49:17;;;;;;;;;;;1.00;99.90;;;;;;5013768;28;19913;-82
2021/12/12 03:51:48;;;;;;;;;;;1.10;99.90;;;;;;5013553;28;20387;-80
2021/12/12 03:54:14;;;;;;;;;;;1.00;99.90;;;;;;5028605;28;19913;-82
2021/12/12 03:56:41;;;;;;;;;;;1.00;99.90;;;;;;5012397;28;19914;-82
2021/12/12 03:59:07;;;;;;;;;;;1.00;99.90;;;;;;4976347;28;19917;-81
2021/12/12 04:01:38;;;;;;;;;;;1.00;99.90;;;;;;5009355;28;20387;-82
2021/12/12 04:04:06;;;;;;;;;;;1.10;99.90;;;;;;5010496;28;19924;-80
2021/12/12 04:06:32;;;;;;;;;;;1.00;99.90;;;;;;4990175;28;19918;-79
2021/12/12 04:08:58;;;;;;;;;;;1.00;99.90;;;;;;4994724;28;19924;-81
2021/12/12 04:11:26;;;;;;;;;;;1.00;99.90;;;;;;4994892;28;19921;-82
2021/12/12 04:13:54;;;;;;;;;;;1.00;99.90;;;;;;4986729;28;19921;-80
2021/12/12 04:16:21;;;;;;;;;;;1.00;99.90;;;;;;5011574;28;19920;-80
2021/12/12 04:18:47;;;;;;;;;;;1.00;99.90;;;;;;4999840;28;19918;-84
2021/12/12 04:21:13;;;;;;;;;;;1.10;99.90;;;;;;5023991;28;20401;-83
2021/12/12 04:23:39;;;;;;;;;;;1.10;99.90;;;;;;5011943;28;20012;-83
2021/12/12 04:26:08;;;;;;;;;;;1.20;99.90;;;;;;5034104;22;20409;-80
2021/12/12 04:28:34;;;;;;;;;;;1.10;99.90;;;;;;5015947;28;19967;-80
2021/12/12 04:30:59;;;;;;;;;;;1.10;99.90;;;;;;5034368;28;19917;-80
2021/12/12 04:33:25;;;;;;;;;;;1.10;99.90;;;;;;5046946;28;19920;-80
2021/12/12 04:35:51;;;;;;;;;;;1.10;99.90;;;;;;5032141;28;19913;-80
2021/12/12 04:38:16;;;;;;;;;;;1.20;99.90;;;;;;5034190;28;20303;-80
2021/12/12 04:40:42;;;;;;;;;;;1.30;99.90;;;;;;5039570;28;20027;-80
2021/12/12 04:43:07;;;;;;;;;;;1.30;99.90;;;;;;5016706;28;19967;-80
2021/12/12 04:45:36;;;;;;;;;;;1.30;99.90;;;;;;5033462;28;19925;-80
2021/12/12 04:50:52;;;;;;;;;;;1.30;99.90;;;;;;5038627;28;19925;-80
2021/12/12 04:53:27;;;;;;;;;;;1.30;99.90;;;;;;5020794;28;20399;-80
2021/12/12 04:55:58;;;;;;;;;;;1.30;99.90;;;;;;5030240;28;20363;-80
2021/12/12 04:58:44;;;;;;;;;;;1.30;99.90;;;;;;5034810;28;19921;-79
2021/12/12 05:01:14;;;;;;;;;;;1.40;99.90;;;;;;5039966;28;19935;-80
2021/12/12 05:03:50;;;;;;;;;;;1.40;99.90;;;;;;5031509;28;20409;-80
2021/12/12 05:06:21;;;;;;;;;;;1.40;99.90;;;;;;5002929;28;19913;-80
2021/12/12 05:08:59;;;;;;;;;;;1.40;99.90;;;;;;5032542;28;20000;-80
2021/12/12 05:11:31;;;;;;;;;;;1.40;99.90;;;;;;5029165;28;19961;-80
2021/12/12 05:14:00;;;;;;;;;;;1.40;99.90;;;;;;5035237;28;19936;-80
2021/12/12 05:16:30;;;;;;;;;;;1.40;99.90;;;;;;5034007;28;20383;-80
2021/12/12 05:19:01;;;;;;;;;;;1.40;99.90;;;;;;5014242;28;19964;-80
2021/12/12 05:21:29;;;;;;;;;;;1.40;99.90;;;;;;5030847;28;19927;-80
2021/12/12 05:23:56;;;;;;;;;;;1.40;99.90;;;;;;5030273;28;19975;-80
2021/12/12 05:26:25;;;;;;;;;;;1.40;99.90;;;;;;5036729;28;19917;-80
2021/12/12 05:28:59;;;;;;;;;;;1.40;99.90;;;;;;5017343;28;20425;-80
2021/12/12 05:31:25;;;;;;;;;;;1.40;99.90;;;;;;5024250;28;20000;-80
2021/12/12 05:33:52;;;;;;;;;;;1.40;99.90;;;;;;5024981;28;19956;-80
2021/12/12 05:36:19;;;;;;;;;;;1.40;99.90;;;;;;4995561;28;19925;-80
2021/12/12 05:38:45;;;;;;;;;;;1.40;99.90;;;;;;5041409;28;19925;-80
2021/12/12 05:41:11;;;;;;;;;;;1.50;99.90;;;;;;5024315;28;19965;-80
2021/12/12 05:43:37;;;;;;;;;;;1.50;99.90;;;;;;5015069;28;20007;-80
2021/12/12 05:46:03;;;;;;;;;;;1.40;99.90;;;;;;5032405;28;19913;-80
2021/12/12 05:48:29;;;;;;;;;;;1.40;99.90;;;;;;5019702;28;19937;-80
2021/12/12 05:50:54;;;;;;;;;;;1.40;99.90;;;;;;5034656;28;20544;-80
2021/12/12 05:53:20;;;;;;;;;;;1.40;99.90;;;;;;5033374;28;19917;-80
2021/12/12 05:55:46;;;;;;;;;;;1.40;99.90;;;;;;5015510;28;19917;-79
2021/12/12 05:58:15;;;;;;;;;;;1.40;99.90;;;;;;5033556;28;19935;-79
2021/12/12 06:00:43;;;;;;;;;;;1.40;99.90;;;;;;5030406;28;19928;-80
2021/12/12 06:03:11;;;;;;;;;;;1.40;99.90;;;;;;5015306;28;20294;-80
2021/12/12 06:05:37;;;;;;;;;;;1.40;99.90;;;;;;5031375;28;19990;-80
2021/12/12 06:08:04;;;;;;;;;;;1.40;99.90;;;;;;5034695;28;19917;-81
2021/12/12 06:10:30;;;;;;;;;;;1.40;99.90;;;;;;5020454;28;19917;-79
2021/12/12 06:12:56;;;;;;;;;;;1.40;99.90;;;;;;5015335;28;20012;-78
2021/12/12 06:15:23;;;;;;;;;;;1.40;99.90;;;;;;5030431;28;19913;-78
2021/12/12 06:17:50;;;;;;;;;;;1.40;99.90;;;;;;5030457;28;20000;-77
2021/12/12 06:20:17;;;;;;;;;;;1.40;99.90;;;;;;5026449;28;19974;-77
2021/12/12 06:22:43;;;;;;;;;;;1.40;99.90;;;;;;5030328;28;19949;-77
2021/12/12 06:25:09;;;;;;;;;;;1.40;99.90;;;;;;5029884;28;19967;-77
2021/12/12 06:27:35;;;;;;;;;;;1.30;99.90;;;;;;5013897;28;19924;-77
2021/12/12 06:30:03;;;;;;;;;;;1.30;99.90;;;;;;5028199;28;20000;-77
2021/12/12 06:32:28;;;;;;;;;;;1.40;99.90;;;;;;5030786;28;20582;-77
2021/12/12 06:34:55;;;;;;;;;;;1.40;99.90;;;;;;5031429;28;19948;-77
2021/12/12 06:37:21;;;;;;;;;;;1.30;99.90;;;;;;5036925;28;19920;-77
2021/12/12 06:39:47;;;;;;;;;;;1.40;99.90;;;;;;5031492;28;19920;-77
2021/12/12 06:42:13;;;;;;;;;;;1.40;99.90;;;;;;5010380;28;19925;-77
2021/12/12 06:44:41;;;;;;;;;;;1.40;99.90;;;;;;5027116;28;19967;-77
2021/12/12 06:47:08;;;;;;;;;;;1.40;99.90;;;;;;5030973;28;20437;-78
2021/12/12 06:49:34;;;;;;;;;;;1.30;99.90;;;;;;5010709;28;20012;-77
2021/12/12 06:52:00;;;;;;;;;;;1.30;99.90;;;;;;5016541;28;19916;-77
2021/12/12 06:54:27;;;;;;;;;;;1.40;99.90;;;;;;5035890;28;19952;-77
2021/12/12 06:56:56;;;;;;;;;;;1.40;99.90;;;;;;5029815;28;19913;-78
2021/12/12 06:59:23;;;;;;;;;;;1.40;99.90;;;;;;5028192;28;19913;-83
2021/12/12 07:01:49;;;;;;;;;;;1.40;99.90;;;;;;5036522;28;19925;-78
2021/12/12 07:04:18;;;;;;;;;;;1.40;99.90;;;;;;5031163;28;20416;-78
2021/12/12 07:06:45;;;;;;;;;;;1.40;99.90;;;;;;5023877;28;20008;-77
2021/12/12 07:09:11;;;;;;;;;;;1.40;99.90;;;;;;5014748;28;20043;-79
2021/12/12 07:11:37;;;;;;;;;;;1.50;99.90;;;;;;5023476;28;19974;-77
2021/12/12 07:14:04;;;;;;;;;;;1.50;99.90;;;;;;5026448;28;19917;-79
2021/12/12 07:16:31;;;;;;;;;;;1.50;99.90;;;;;;5030895;28;20008;-78
2021/12/12 07:18:58;;;;;;;;;;;1.40;99.90;;;;;;5019247;28;19920;-78
2021/12/12 07:21:24;;;;;;;;;;;1.40;99.90;;;;;;5022795;28;19917;-78
2021/12/12 07:23:50;;;;;;;;;;;1.40;99.90;;;;;;5029468;28;20036;-78
2021/12/12 07:26:17;;;;;;;;;;;1.50;99.90;;;;;;5026787;28;20375;-78
2021/12/12 07:28:43;;;;;;;;;;;1.50;99.90;;;;;;5014623;28;19917;-80
2021/12/12 07:31:10;;;;;;;;;;;1.50;99.90;;;;;;5026109;28;19932;-80
2021/12/12 07:33:36;;;;;;;;;;;1.50;99.90;;;;;;5028719;28;20434;-80
2021/12/12 07:36:03;;;;;;;;;;;1.50;99.90;;;;;;5032820;28;19917;-80
2021/12/12 07:38:30;;;;;;;;;;;1.50;99.90;;;;;;5006215;28;19953;-79
2021/12/12 07:40:56;;;;;;;;;;;1.50;99.90;;;;;;4996619;28;19936;-78
2021/12/12 07:43:22;;;;;;;;;;;1.40;99.90;;;;;;5032815;28;19917;-78
2021/12/12 07:45:47;;;;;;;;;;;1.50;99.90;;;;;;5029400;28;20257;-78
2021/12/12 07:48:13;;;;;;;;;;;1.50;99.90;;;;;;5026823;28;19917;-78
2021/12/12 07:50:40;;;;;;;;;;;1.50;99.90;;;;;;5025164;28;19921;-78
2021/12/12 07:53:06;;;;;;;;;;;1.50;99.90;;;;;;5027370;28;20287;-78
2021/12/12 07:55:32;;;;;;;;;;;1.50;99.90;;;;;;5027656;28;19913;-78
2021/12/12 07:57:58;;;;;;;;;;;1.50;99.90;;;;;;5009610;28;19918;-78
2021/12/12 08:00:26;;;;;;;;;;;1.60;99.90;;;;;;5011097;28;20561;-78
2021/12/12 08:02:52;;;;;;;;;;;1.70;99.90;;;;;;5024825;28;20000;-78
2021/12/12 08:05:18;;;;;;;;;;;1.60;99.90;;;;;;5043879;28;19976;-78
2021/12/12 08:07:44;;;;;;;;;;;1.60;99.90;;;;;;5031387;28;19944;-78
2021/12/12 08:10:11;;;;;;;;;;;1.60;99.90;;;;;;5027393;28;20007;-78
2021/12/12 08:12:37;;;;;;;;;;;1.70;99.90;;;;;;5014403;28;19913;-78
2021/12/12 08:15:07;;;;;;;;;;;1.80;99.90;;;;;;5034353;28;19955;-79
2021/12/12 08:17:34;;;;;;;;;;;1.80;99.90;;;;;;5044872;28;19927;-78
2021/12/12 08:20:00;;;;;;;;;;;1.80;99.90;;;;;;4984888;28;19929;-78
2021/12/12 08:22:27;;;;;;;;;;;1.80;99.90;;;;;;5027645;28;20341;-78
2021/12/12 08:24:55;;;;;;;;;;;1.90;99.90;;;;;;5038897;28;20007;-79
2021/12/12 08:27:20;;;;;;;;;;;1.90;99.90;;;;;;5033354;28;19917;-78
2021/12/12 08:29:46;;;;;;;;;;;1.90;99.90;;;;;;5015872;28;19920;-78
2021/12/12 08:32:12;;;;;;;;;;;2.00;99.90;;;;;;5030467;28;20381;-78
2021/12/12 08:34:38;;;;;;;;;;;2.10;99.90;;;;;;5030601;28;19921;-78
2021/12/12 08:37:05;;;;;;;;;;;2.20;99.90;;;;;;5033495;28;19913;-78
2021/12/12 08:39:31;;;;;;;;;;;2.20;99.90;;;;;;5027901;28;20353;-78
2021/12/12 08:41:58;;;;;;;;;;;2.30;99.90;;;;;;5036429;28;19969;-78
2021/12/12 08:44:24;;;;;;;;;;;2.20;99.90;;;;;;5036063;28;19913;-78
2021/12/12 08:46:51;;;;;;;;;;;2.30;99.90;;;;;;5031452;28;19925;-78
2021/12/12 08:49:18;;;;;;;;;;;2.20;99.90;;;;;;5034030;28;19917;-78
2021/12/12 08:51:46;;;;;;;;;;;2.30;99.90;;;;;;5033610;28;19944;-78
2021/12/12 08:54:14;;;;;;;;;;;2.30;99.90;;;;;;5030304;28;19913;-78
2021/12/12 08:56:47;;;;;;;;;;;2.30;99.90;;;;;;5014498;28;20003;-78
2021/12/12 08:59:21;;;;;;;;;;;2.30;99.90;;;;;;5010628;28;20014;-78
2021/12/12 09:01:48;;;;;;;;;;;2.30;99.90;;;;;;5030465;28;19918;-78
2021/12/12 09:04:14;;;;;;;;;;;2.30;99.90;;;;;;5032188;28;20268;-77
2021/12/12 09:06:47;;;;;;;;;;;2.30;99.90;;;;;;5027909;28;19964;-78
2021/12/12 09:09:14;;;;;;;;;;;2.20;99.90;;;;;;5034713;28;19940;-78
2021/12/12 09:11:44;;;;;;;;;;;2.20;99.90;;;;;;5029578;28;19971;-77
2021/12/12 09:14:28;;;;;;;;;;;2.20;99.90;;;;;;5025932;28;20000;-78
2021/12/12 09:16:59;;;;;;;;;;;2.20;99.90;;;;;;5035661;28;20514;-78
2021/12/12 09:19:28;;;;;;;;;;;2.20;99.90;;;;;;5032761;28;19917;-77
2021/12/12 09:21:57;;;;;;;;;;;2.20;99.90;;;;;;5037968;28;20058;-78
2021/12/12 09:24:43;;;;;;;;;;;2.20;99.90;;;;;;5035370;28;20007;-77
2021/12/12 09:27:10;;;;;;;;;;;2.20;99.90;;;;;;5027086;28;19928;-78
2021/12/12 09:29:40;;;;;;;;;;;2.20;99.90;;;;;;5029551;28;20411;-78
2021/12/12 09:32:09;;;;;;;;;;;2.20;99.90;;;;;;5026004;28;20333;-78
2021/12/12 09:34:38;;;;;;;;;;;2.20;99.90;;;;;;5029752;28;19929;-78
2021/12/12 09:37:15;;;;;;;;;;;2.20;99.90;;;;;;5028968;28;19913;-78
2021/12/12 09:39:46;;;;;;;;;;;2.30;99.90;;;;;;5025970;28;19916;-78
2021/12/12 09:42:17;;;;;;;;;;;2.40;99.90;;;;;;5031188;28;19921;-78
2021/12/12 09:44:54;;;;;;;;;;;2.40;99.90;;;;;;5025645;28;20387;-78
2021/12/12 09:53:13;;;;;;;;;;;2.50;99.90;;;;;;5028536;28;19914;-79
2021/12/12 09:55:47;;;;;;;;;;;2.50;99.90;;;;;;5037059;28;19943;-79
2021/12/12 09:58:31;;;;;;;;;;;2.50;99.90;;;;;;5039968;28;19920;-79
2021/12/12 10:01:03;;;;;;;;;;;2.60;99.90;;;;;;5027748;28;20482;-79
2021/12/12 10:03:38;;;;;;;;;;;2.60;99.90;;;;;;5029666;28;19921;-79
2021/12/12 10:06:16;;;;;;;;;;;2.60;99.90;;;;;;5036626;28;20003;-79
2021/12/12 10:08:42;;;;;;;;;;;2.70;99.90;;;;;;5037297;28;19913;-79
2021/12/12 10:11:22;;;;;;;;;;;2.60;99.90;;;;;;5037643;28;19947;-79
2021/12/12 10:13:51;;;;;;;;;;;2.70;99.90;;;;;;5041523;28;19960;-79
2021/12/12 10:16:20;;;;;;;;;;;2.70;99.90;;;;;;5033257;28;19921;-79
2021/12/12 10:18:45;;;;;;;;;;;2.80;99.90;;;;;;5032445;28;20397;-79
2021/12/12 10:21:14;;;;;;;;;;;2.80;99.90;;;;;;5026602;28;19996;-79
2021/12/12 10:24:02;;;;;;;;;;;2.90;99.90;;;;;;5034299;28;20426;-79
2021/12/12 10:26:54;;;;;;;;;;;2.90;99.90;;;;;;5064137;22;19925;-81
2021/12/12 10:29:29;;;;;;;;;;;2.90;99.90;;;;;;5052593;28;19981;-81
2021/12/12 10:31:59;;;;;;;;;;;2.90;99.90;;;;;;5053015;28;19913;-80
2021/12/12 10:34:31;;;;;;;;;;;2.90;99.90;;;;;;5034938;28;19909;-81
2021/12/12 10:37:15;;;;;;;;;;;2.90;99.90;;;;;;5062740;28;20277;-81
2021/12/12 10:39:46;;;;;;;;;;;2.90;99.90;;;;;;5051584;28;19917;-80
2021/12/12 10:42:17;;;;;;;;;;;2.90;99.90;;;;;;5033567;28;20023;-80
2021/12/12 10:44:47;;;;;;;;;;;2.90;99.90;;;;;;5058801;28;20328;-82
2021/12/12 10:47:23;;;;;;;;;;;2.90;99.90;;;;;;5080379;28;19912;-80
2021/12/12 10:50:11;;;;;;;;;;;2.90;99.90;;;;;;5071228;28;19912;-81
2021/12/12 10:52:49;;;;;;;;;;;2.90;99.90;;;;;;5068296;28;19990;-82
2021/12/12 10:55:16;;;;;;;;;;;3.00;99.90;;;;;;5086301;28;20362;-80
2021/12/12 10:57:42;;;;;;;;;;;2.90;99.90;;;;;;5058517;28;19908;-83
2021/12/12 11:00:14;;;;;;;;;;;3.00;99.90;;;;;;5079507;28;19913;-84
2021/12/12 11:02:44;;;;;;;;;;;3.00;99.90;;;;;;5059703;28;19916;-84
2021/12/12 11:05:18;;;;;;;;;;;3.00;99.90;;;;;;5079535;28;19913;-84
2021/12/12 11:07:49;;;;;;;;;;;3.00;99.90;;;;;;5064137;28;19913;-83
2021/12/12 11:10:20;;;;;;;;;;;3.00;99.90;;;;;;5076014;28;19913;-84
2021/12/12 11:12:50;;;;;;;;;;;3.10;99.90;;;;;;5075368;28;19920;-84
2021/12/12 11:15:17;;;;;;;;;;;3.10;99.90;;;;;;5075590;28;19974;-84
2021/12/12 11:17:45;;;;;;;;;;;3.10;99.90;;;;;;5072362;28;19912;-84
2021/12/12 11:20:16;;;;;;;;;;;3.10;99.90;;;;;;5070098;28;19917;-84
2021/12/12 11:22:47;;;;;;;;;;;3.10;99.90;;;;;;5071655;28;19913;-83
2021/12/12 11:25:22;;;;;;;;;;;3.10;99.90;;;;;;5058044;28;19958;-84
2021/12/12 11:27:54;;;;;;;;;;;3.10;99.90;;;;;;5071193;28;19923;-82
2021/12/12 11:30:25;;;;;;;;;;;3.10;99.90;;;;;;5079002;28;19989;-83
2021/12/12 11:32:52;;;;;;;;;;;3.10;99.90;;;;;;5070714;28;19924;-83
2021/12/12 11:35:19;;;;;;;;;;;3.10;99.90;;;;;;5076511;28;19913;-84
2021/12/12 11:37:44;;;;;;;;;;;3.20;99.90;;;;;;5076179;28;20415;-84
2021/12/12 11:40:26;;;;;;;;;;;3.10;99.90;;;;;;5071930;28;19912;-82
2021/12/12 11:43:02;;;;;;;;;;;3.10;99.90;;;;;;5056427;28;19918;-84
2021/12/12 11:45:30;;;;;;;;;;;3.10;99.90;;;;;;5054051;28;19959;-81
2021/12/12 11:48:02;;;;;;;;;;;3.10;99.90;;;;;;5072555;28;20286;-83
2021/12/12 11:50:30;;;;;;;;;;;3.10;99.90;;;;;;5073606;28;19920;-83
2021/12/12 11:53:07;;;;;;;;;;;3.10;99.90;;;;;;5072261;28;20293;-82
2021/12/12 11:55:45;;;;;;;;;;;3.10;99.90;;;;;;5075220;28;19912;-83
2021/12/12 11:58:14;;;;;;;;;;;3.10;99.90;;;;;;5032588;28;19928;-83
2021/12/12 12:00:46;;;;;;;;;;;3.10;99.90;;;;;;5072101;28;19962;-85
2021/12/12 12:03:30;;;;;;;;;;;3.10;99.90;;;;;;5070607;28;19935;-85
2021/12/12 12:06:14;;;;;;;;;;;3.10;99.90;;;;;;5074772;28;19991;-83
2021/12/12 12:08:43;;;;;;;;;;;3.10;99.90;;;;;;5053749;28;20434;-82
2021/12/12 12:11:18;;;;;;;;;;;3.10;99.90;;;;;;5073615;28;20655;-83
2021/12/12 12:13:50;;;;;;;;;;;3.10;99.90;;;;;;5074106;28;19951;-85
2021/12/12 12:16:29;;;;;;;;;;;3.00;99.90;;;;;;5045756;28;19926;-81
2021/12/12 12:19:13;;;;;;;;;;;3.10;99.90;;;;;;5053390;28;19919;-86
2021/12/12 12:21:41;;;;;;;;;;;3.10;99.90;;;;;;5054820;28;20023;-83
2021/12/12 12:24:25;;;;;;;;;;;3.10;99.90;;;;;;5052461;28;19912;-86
2021/12/12 12:27:03;;;;;;;;;;;3.00;99.90;;;;;;5092137;28;19996;-88
2021/12/12 12:29:33;;;;;;;;;;;3.00;99.90;;;;;;5075834;28;19917;-84
2021/12/12 12:32:05;;;;;;;;;;;3.00;99.90;;;;;;5055039;28;19909;-83
2021/12/12 12:34:36;;;;;;;;;;;3.10;99.90;;;;;;5055574;28;20011;-88
2021/12/12 12:37:21;;;;;;;;;;;3.10;99.90;;;;;;5068611;28;19912;-86
2021/12/12 12:40:05;;;;;;;;;;;3.10;99.90;;;;;;5067151;28;19951;-84
2021/12/12 12:42:50;;;;;;;;;;;3.10;99.90;;;;;;5047205;28;20411;-84
2021/12/12 12:45:55;;;;;;;;;;;3.10;99.90;;;;;;5045571;28;19913;-82
2021/12/12 12:48:40;;;;;;;;;;;3.10;99.90;;;;;;5022222;28;19917;-82
2021/12/12 12:51:24;;;;;;;;;;;3.20;99.90;;;;;;5014777;28;19931;-84
2021/12/12 12:54:05;;;;;;;;;;;3.10;99.90;;;;;;5034420;28;20007;-84
2021/12/12 12:56:49;;;;;;;;;;;3.20;99.90;;;;;;5065120;28;19920;-85
2021/12/12 12:59:41;;;;;;;;;;;3.20;99.90;;;;;;5048092;28;20041;-84
2021/12/12 13:02:16;;;;;;;;;;;3.20;99.90;;;;;;5063518;28;20382;-82
2021/12/12 13:05:01;;;;;;;;;;;3.20;99.90;;;;;;5052634;28;20289;-82
2021/12/12 13:07:46;;;;;;;;;;;3.20;99.90;;;;;;5064993;28;19991;-82
2021/12/12 13:10:21;;;;;;;;;;;3.30;99.90;;;;;;5067576;28;19974;-81
2021/12/12 13:12:53;;;;;;;;;;;3.20;99.90;;;;;;5036667;28;19916;-86
2021/12/12 13:15:31;;;;;;;;;;;3.20;99.90;;;;;;5052057;28;20301;-85
2021/12/12 13:17:57;;;;;;;;;;;3.10;99.90;;;;;;5061358;28;19913;-81
2021/12/12 13:20:38;;;;;;;;;;;3.00;99.90;;;;;;5067341;28;19943;-83
2021/12/12 13:23:15;;;;;;;;;;;3.00;99.90;;;;;;5045917;28;19913;-82
2021/12/12 13:25:43;;;;;;;;;;;3.00;99.90;;;;;;5062585;28;20988;-81
2021/12/12 13:28:20;;;;;;;;;;;3.00;99.90;;;;;;5045604;28;19920;-83
2021/12/12 13:31:27;;;;;;;;;;;3.00;99.90;;;;;;5065100;28;19919;-80
2021/12/12 13:34:11;;;;;;;;;;;3.00;99.90;;;;;;5029625;28;19917;-83
2021/12/12 13:36:40;;;;;;;;;;;3.00;99.90;;;;;;5011137;28;19966;-82
2021/12/12 13:39:25;;;;;;;;;;;3.00;99.90;;;;;;5051463;28;19920;-81
2021/12/12 13:42:17;;;;;;;;;;;2.90;99.90;;;;;;5067153;28;19936;-82
2021/12/12 13:45:01;;;;;;;;;;;3.00;99.90;;;;;;5050251;28;19973;-82
2021/12/12 13:47:33;;;;;;;;;;;3.00;99.90;;;;;;5060377;28;20294;-82
2021/12/12 13:50:04;;;;;;;;;;;3.00;99.90;;;;;;5065981;28;19970;-81
2021/12/12 13:52:38;;;;;;;;;;;3.00;99.90;;;;;;5067821;28;19912;-80
2021/12/12 13:55:13;;;;;;;;;;;3.10;99.90;;;;;;5050300;28;19912;-83
2021/12/12 13:57:58;;;;;;;;;;;3.10;99.90;;;;;;5067420;28;19917;-83
2021/12/12 14:00:29;;;;;;;;;;;3.20;99.90;;;;;;5041562;28;19924;-81
2021/12/12 14:02:57;;;;;;;;;;;3.20;99.90;;;;;;5050937;28;19917;-82
2021/12/12 14:05:26;;;;;;;;;;;3.10;99.90;;;;;;5055583;28;19917;-81
2021/12/12 14:07:54;;;;;;;;;;;3.10;99.90;;;;;;5063643;28;20000;-81
2021/12/12 14:10:30;;;;;;;;;;;3.10;99.90;;;;;;5047577;28;20003;-82
2021/12/12 14:13:01;;;;;;;;;;;3.00;99.90;;;;;;5050715;28;19955;-84
2021/12/12 14:15:28;;;;;;;;;;;3.00;99.90;;;;;;5052306;28;20405;-84
2021/12/12 14:17:58;;;;;;;;;;;3.00;99.90;;;;;;5049999;28;20357;-85
2021/12/12 14:20:30;;;;;;;;;;;3.00;99.90;;;;;;5063674;28;20382;-80
2021/12/12 14:22:57;;;;;;;;;;;2.90;99.90;;;;;;5052395;28;19954;-83
2021/12/12 14:25:24;;;;;;;;;;;2.90;99.90;;;;;;5052428;28;19927;-83
2021/12/12 14:27:51;;;;;;;;;;;2.80;99.90;;;;;;5048642;28;19933;-80
2021/12/12 14:30:18;;;;;;;;;;;2.70;99.90;;;;;;5072531;28;19916;-83
2021/12/12 14:32:48;;;;;;;;;;;2.70;99.90;;;;;;5055842;28;19923;-81
2021/12/12 14:35:19;;;;;;;;;;;2.60;99.90;;;;;;5062477;28;19928;-81
2021/12/12 14:37:46;;;;;;;;;;;2.60;99.90;;;;;;5047450;28;19924;-79
2021/12/12 14:40:14;;;;;;;;;;;2.60;99.90;;;;;;5044473;28;19909;-80
2021/12/12 14:42:49;;;;;;;;;;;2.60;99.90;;;;;;5069223;28;20053;-80
2021/12/12 14:45:17;;;;;;;;;;;2.60;99.90;;;;;;5058878;28;19919;-84
2021/12/12 14:47:45;;;;;;;;;;;2.60;99.90;;;;;;5047918;28;19916;-81
2021/12/12 14:50:31;;;;;;;;;;;2.50;99.90;;;;;;5063480;28;19916;-83
2021/12/12 14:53:00;;;;;;;;;;;2.50;99.90;;;;;;5052488;28;20317;-82
2021/12/12 14:55:31;;;;;;;;;;;2.50;99.90;;;;;;5068772;28;19958;-81
2021/12/12 14:58:03;;;;;;;;;;;2.50;99.90;;;;;;5034155;28;19920;-82
2021/12/12 15:00:31;;;;;;;;;;;2.50;99.90;;;;;;5066331;28;19913;-81
2021/12/12 15:02:59;;;;;;;;;;;2.50;99.90;;;;;;5058565;28;19917;-80
2021/12/12 15:05:24;;;;;;;;;;;2.40;99.90;;;;;;5045392;28;19966;-82
2021/12/12 15:07:51;;;;;;;;;;;2.40;99.90;;;;;;5063079;28;19916;-82
2021/12/12 15:10:24;;;;;;;;;;;2.40;99.90;;;;;;5046936;28;19916;-82